Time;durP1;ratioP1;P1;durP2;ratioP2;P2;SDS_P1;SDS_P2;PMS_P1;PMS_P2;Temp;Humidity;BMP_temperature;BMP_pressure;BME280_temperature;BME280_humidity;BME280_pressure;Samples;Min_cycle;Max_cycle;Signal;HPM_P1;HPM_P2
2023/09/07 00:00:15;;;;;;;1.40;1.30;;;22.00;99.90;;;;;;5014588;28;20222;-66
2023/09/07 00:02:45;;;;;;;1.08;1.08;;;21.90;99.90;;;;;;5021077;28;20205;-66
2023/09/07 00:05:15;;;;;;;1.55;1.40;;;21.90;99.90;;;;;;5013705;28;20234;-66
2023/09/07 00:07:42;;;;;;;1.35;1.30;;;21.90;99.90;;;;;;5024374;28;20202;-67
2023/09/07 00:10:10;;;;;;;1.50;1.38;;;21.90;99.90;;;;;;5002494;28;20199;-66
2023/09/07 00:12:39;;;;;;;1.17;1.17;;;21.90;99.90;;;;;;5022849;28;20198;-67
2023/09/07 00:15:07;;;;;;;1.48;1.48;;;21.80;99.90;;;;;;5029274;28;20188;-67
2023/09/07 00:17:34;;;;;;;1.15;1.05;;;21.90;99.90;;;;;;5021399;28;20324;-66
2023/09/07 00:20:09;;;;;;;3.95;1.45;;;21.90;99.90;;;;;;5025227;28;20207;-66
2023/09/07 00:22:36;;;;;;;1.35;1.25;;;21.90;99.90;;;;;;5028726;28;20554;-66
2023/09/07 00:25:03;;;;;;;2.08;1.30;;;21.90;99.90;;;;;;5012793;28;20253;-66
2023/09/07 00:27:31;;;;;;;1.70;1.60;;;21.90;99.90;;;;;;5030563;28;20233;-66
2023/09/07 00:29:58;;;;;;;2.08;1.63;;;21.90;99.90;;;;;;5013338;28;20217;-66
2023/09/07 00:32:25;;;;;;;1.58;1.48;;;21.90;99.90;;;;;;5020557;28;20210;-66
2023/09/07 00:34:52;;;;;;;1.65;1.60;;;21.90;99.90;;;;;;5010330;28;20207;-66
2023/09/07 00:37:21;;;;;;;1.40;1.30;;;21.80;99.90;;;;;;5022785;28;20238;-66
2023/09/07 00:39:48;;;;;;;2.45;1.30;;;21.80;99.90;;;;;;4985400;28;20206;-67
2023/09/07 00:42:15;;;;;;;1.73;1.63;;;21.80;99.90;;;;;;5026596;28;20191;-67
2023/09/07 00:44:42;;;;;;;1.65;1.55;;;21.80;99.90;;;;;;5000203;28;20558;-67
2023/09/07 00:47:11;;;;;;;1.40;1.30;;;21.80;99.90;;;;;;4992903;28;20191;-67
2023/09/07 00:49:39;;;;;;;3.72;1.48;;;21.80;99.90;;;;;;5014369;28;20191;-67
2023/09/07 00:52:06;;;;;;;1.90;1.67;;;21.80;99.90;;;;;;5014836;28;20662;-67
2023/09/07 00:54:36;;;;;;;1.70;1.60;;;21.80;99.90;;;;;;5024751;28;20261;-66
2023/09/07 00:57:04;;;;;;;1.67;1.58;;;21.80;99.90;;;;;;5011033;28;20292;-67
2023/09/07 00:59:32;;;;;;;1.73;1.63;;;21.80;99.90;;;;;;4996410;28;20211;-66
2023/09/07 01:01:59;;;;;;;1.63;1.52;;;21.80;99.90;;;;;;5011305;28;20282;-67
2023/09/07 01:04:27;;;;;;;2.38;1.95;;;21.80;99.90;;;;;;5029152;28;20226;-66
2023/09/07 01:06:59;;;;;;;3.03;2.03;;;21.80;99.90;;;;;;5025336;28;20605;-66
2023/09/07 01:09:31;;;;;;;1.83;1.73;;;21.80;99.90;;;;;;5020081;28;20193;-67
2023/09/07 01:12:00;;;;;;;3.28;1.83;;;21.80;99.90;;;;;;4999850;28;20289;-66
2023/09/07 01:14:27;;;;;;;2.05;1.95;;;21.80;99.90;;;;;;5004156;28;20205;-66
2023/09/07 01:16:54;;;;;;;1.92;1.83;;;21.80;99.90;;;;;;5020707;28;20213;-66
2023/09/07 01:19:21;;;;;;;1.90;1.80;;;21.80;99.90;;;;;;5005407;28;20241;-66
2023/09/07 01:21:50;;;;;;;3.50;2.47;;;21.80;99.90;;;;;;5028585;28;20249;-66
2023/09/07 01:24:20;;;;;;;2.45;2.22;;;21.90;99.90;;;;;;5023611;28;20199;-66
2023/09/07 01:26:49;;;;;;;2.65;2.40;;;21.80;99.90;;;;;;5030249;28;20198;-66
2023/09/07 01:29:17;;;;;;;2.42;2.13;;;21.80;99.90;;;;;;5008761;28;20304;-67
2023/09/07 01:31:44;;;;;;;2.25;2.05;;;21.80;99.90;;;;;;5028348;28;20198;-67
2023/09/07 01:34:12;;;;;;;3.00;2.00;;;21.80;99.90;;;;;;5008472;28;20203;-67
2023/09/07 01:36:39;;;;;;;2.38;2.17;;;21.90;99.90;;;;;;5027131;28;20674;-66
2023/09/07 01:39:09;;;;;;;5.00;2.30;;;21.90;99.90;;;;;;5017573;28;20199;-66
2023/09/07 01:41:36;;;;;;;2.30;2.10;;;21.90;99.90;;;;;;5011522;28;20574;-66
2023/09/07 01:44:03;;;;;;;2.92;2.50;;;21.80;99.90;;;;;;4989942;28;20195;-64
2023/09/07 01:46:30;;;;;;;2.25;2.10;;;21.90;99.90;;;;;;5003832;28;20207;-65
2023/09/07 01:48:57;;;;;;;2.33;2.13;;;21.90;99.90;;;;;;4992011;28;20694;-65
2023/09/07 01:51:27;;;;;;;2.40;2.20;;;21.90;99.90;;;;;;5003892;28;20202;-65
2023/09/07 01:53:54;;;;;;;3.60;1.90;;;21.80;99.90;;;;;;4993201;28;20200;-66
2023/09/07 01:56:23;;;;;;;2.58;2.33;;;21.90;99.90;;;;;;4999637;28;20314;-66
2023/09/07 01:58:50;;;;;;;3.83;2.50;;;21.90;99.90;;;;;;5008937;28;20250;-66
2023/09/07 02:01:24;;;;;;;2.80;2.55;;;21.80;99.90;;;;;;5004206;28;20653;-65
2023/09/07 02:03:52;;;;;;;3.10;2.15;;;21.80;99.90;;;;;;5009584;28;20642;-66
2023/09/07 02:06:20;;;;;;;2.58;2.00;;;21.80;99.90;;;;;;5027669;28;20187;-65
2023/09/07 02:08:47;;;;;;;3.05;1.80;;;21.80;99.90;;;;;;5020777;28;20728;-65
2023/09/07 02:11:14;;;;;;;2.03;1.90;;;21.90;99.90;;;;;;5022849;28;20193;-65
2023/09/07 02:13:44;;;;;;;2.33;2.00;;;21.80;99.90;;;;;;5017035;28;20265;-65
2023/09/07 02:16:11;;;;;;;2.38;2.15;;;21.90;99.90;;;;;;5005337;28;20199;-66
2023/09/07 02:18:43;;;;;;;3.05;1.90;;;21.90;99.90;;;;;;4992634;28;20215;-65
2023/09/07 02:21:11;;;;;;;2.30;2.00;;;21.90;99.90;;;;;;5009646;28;20219;-65
2023/09/07 02:23:38;;;;;;;2.40;2.20;;;21.90;99.90;;;;;;4993058;28;20196;-66
2023/09/07 02:26:05;;;;;;;2.97;2.08;;;21.90;99.90;;;;;;4991279;28;20290;-66
2023/09/07 02:28:33;;;;;;;2.08;1.90;;;21.80;99.90;;;;;;5009116;28;20616;-65
2023/09/07 02:31:06;;;;;;;1.75;1.65;;;21.80;99.90;;;;;;5013471;28;20248;-66
2023/09/07 02:33:33;;;;;;;2.08;1.80;;;21.80;99.90;;;;;;5002994;28;20206;-66
2023/09/07 02:36:00;;;;;;;2.15;1.67;;;21.80;99.90;;;;;;5014968;28;20268;-65
2023/09/07 02:38:28;;;;;;;1.80;1.70;;;21.80;99.90;;;;;;5007766;28;20666;-64
2023/09/07 02:40:57;;;;;;;1.77;1.67;;;21.80;99.90;;;;;;4991151;28;20326;-66
2023/09/07 02:43:24;;;;;;;2.85;1.88;;;21.80;99.90;;;;;;5007385;28;20679;-66
2023/09/07 02:45:51;;;;;;;2.22;1.83;;;21.70;99.90;;;;;;5008280;28;20209;-65
2023/09/07 02:48:22;;;;;;;2.45;2.00;;;21.70;99.90;;;;;;5014042;28;20238;-65
2023/09/07 02:50:50;;;;;;;2.25;2.15;;;21.70;99.90;;;;;;5014545;28;20296;-66
2023/09/07 02:53:17;;;;;;;2.95;1.73;;;21.70;99.90;;;;;;5000155;28;20818;-66
2023/09/07 02:55:45;;;;;;;2.47;1.80;;;21.70;99.90;;;;;;5012837;28;20233;-66
2023/09/07 02:58:12;;;;;;;1.80;1.70;;;21.70;99.90;;;;;;5018872;28;20203;-66
2023/09/07 03:00:44;;;;;;;2.00;1.90;;;21.70;99.90;;;;;;5001001;28;20278;-66
2023/09/07 03:03:12;;;;;;;3.10;1.83;;;21.70;99.90;;;;;;5013062;28;20297;-66
2023/09/07 03:05:41;;;;;;;1.70;1.55;;;21.70;99.90;;;;;;5009461;28;20227;-66
2023/09/07 03:08:09;;;;;;;1.83;1.73;;;21.70;99.90;;;;;;5010943;28;20257;-66
2023/09/07 03:10:37;;;;;;;1.70;1.58;;;21.70;99.90;;;;;;4997516;28;20210;-66
2023/09/07 03:13:05;;;;;;;1.70;1.60;;;21.70;99.90;;;;;;4995619;28;20207;-66
2023/09/07 03:15:32;;;;;;;1.60;1.50;;;21.70;99.90;;;;;;5002340;28;20274;-66
2023/09/07 03:18:00;;;;;;;1.48;1.45;;;21.70;99.90;;;;;;5001846;28;20207;-65
2023/09/07 03:20:28;;;;;;;1.13;1.13;;;21.70;99.90;;;;;;5002075;28;20216;-65
2023/09/07 03:22:57;;;;;;;1.60;1.50;;;21.70;99.90;;;;;;5011330;28;20670;-66
2023/09/07 03:25:24;;;;;;;1.30;1.30;;;21.70;99.90;;;;;;5004268;28;20202;-66
2023/09/07 03:27:51;;;;;;;1.23;1.13;;;21.70;99.90;;;;;;5012147;28;20199;-66
2023/09/07 03:30:19;;;;;;;1.30;1.30;;;21.70;99.90;;;;;;5003545;28;20208;-66
2023/09/07 03:32:46;;;;;;;1.27;1.27;;;21.70;99.90;;;;;;4996807;28;20275;-66
2023/09/07 03:35:13;;;;;;;1.30;1.30;;;21.70;99.90;;;;;;5004395;28;20207;-66
2023/09/07 03:37:42;;;;;;;1.20;1.20;;;21.70;99.90;;;;;;5012121;28;20195;-65
2023/09/07 03:40:11;;;;;;;1.33;1.23;;;21.70;99.90;;;;;;4982837;28;20571;-66
2023/09/07 03:42:41;;;;;;;2.70;1.60;;;21.60;99.90;;;;;;5006907;28;20299;-66
2023/09/07 03:45:10;;;;;;;1.33;1.33;;;21.60;99.90;;;;;;5003299;28;20211;-66
2023/09/07 03:47:38;;;;;;;1.77;1.67;;;21.60;99.90;;;;;;4990181;28;20291;-66
2023/09/07 03:50:06;;;;;;;1.70;1.60;;;21.60;99.90;;;;;;4997914;28;20206;-66
2023/09/07 03:52:33;;;;;;;1.42;1.40;;;21.60;99.90;;;;;;4988503;28;20248;-66
2023/09/07 03:55:02;;;;;;;1.33;1.33;;;21.50;99.90;;;;;;4994856;28;20623;-66
2023/09/07 03:57:31;;;;;;;1.48;1.38;;;21.50;99.90;;;;;;5002124;28;20234;-65
2023/09/07 03:59:59;;;;;;;1.40;1.40;;;21.50;99.90;;;;;;4992243;28;20223;-66
2023/09/07 04:02:26;;;;;;;1.65;1.55;;;21.40;99.90;;;;;;5002126;28;20216;-66
2023/09/07 04:04:55;;;;;;;1.30;1.30;;;21.40;99.90;;;;;;5003777;28;20263;-65
2023/09/07 04:07:22;;;;;;;1.45;1.35;;;21.40;99.90;;;;;;4988539;28;20215;-65
2023/09/07 04:09:51;;;;;;;1.30;1.30;;;21.40;99.90;;;;;;4990719;28;20215;-66
2023/09/07 04:12:18;;;;;;;1.38;1.05;;;21.30;99.90;;;;;;4991913;28;20250;-65
2023/09/07 04:14:46;;;;;;;1.50;1.40;;;21.30;99.90;;;;;;4993786;28;20555;-66
2023/09/07 04:17:13;;;;;;;1.23;1.23;;;21.30;99.90;;;;;;4993257;28;20258;-66
2023/09/07 04:19:41;;;;;;;1.30;1.30;;;21.30;99.90;;;;;;4990015;28;20212;-66
2023/09/07 04:22:08;;;;;;;1.20;1.20;;;21.30;99.90;;;;;;4990976;28;20211;-66
2023/09/07 04:24:35;;;;;;;1.40;1.30;;;21.30;99.90;;;;;;4990247;28;20223;-66
2023/09/07 04:27:04;;;;;;;1.33;1.33;;;21.20;99.90;;;;;;4995125;28;20218;-65
2023/09/07 04:29:33;;;;;;;1.33;1.30;;;21.20;99.90;;;;;;4990579;28;20223;-66
2023/09/07 04:32:02;;;;;;;1.20;1.20;;;21.20;99.90;;;;;;4990219;28;20195;-66
2023/09/07 04:34:30;;;;;;;1.33;1.33;;;21.20;99.90;;;;;;4991993;28;20262;-66
2023/09/07 04:36:57;;;;;;;1.73;1.63;;;21.20;99.90;;;;;;4991316;28;20199;-65
2023/09/07 04:39:24;;;;;;;1.70;1.60;;;21.20;99.90;;;;;;4991130;28;20204;-66
2023/09/07 04:41:52;;;;;;;2.88;1.30;;;21.10;99.90;;;;;;5006284;28;20219;-66
2023/09/07 04:44:20;;;;;;;1.40;1.40;;;21.10;99.90;;;;;;4991337;28;20259;-66
2023/09/07 04:46:47;;;;;;;1.30;1.30;;;21.20;99.90;;;;;;4989538;28;20263;-65
2023/09/07 04:49:15;;;;;;;1.30;1.30;;;21.20;99.90;;;;;;4991205;28;20706;-65
2023/09/07 04:51:43;;;;;;;1.38;1.20;;;21.20;99.90;;;;;;4986198;28;20623;-66
2023/09/07 04:54:10;;;;;;;1.23;1.23;;;21.20;99.90;;;;;;4992446;28;20314;-65
2023/09/07 04:56:37;;;;;;;0.90;0.90;;;21.20;99.90;;;;;;4985408;28;20551;-66
2023/09/07 04:59:04;;;;;;;1.00;1.00;;;21.20;99.90;;;;;;4989385;28;20231;-65
2023/09/07 05:01:32;;;;;;;1.25;1.17;;;21.20;99.90;;;;;;4993654;28;20241;-66
2023/09/07 05:03:59;;;;;;;1.48;1.38;;;21.30;99.90;;;;;;4988248;28;20328;-66
2023/09/07 05:06:27;;;;;;;1.50;1.23;;;21.30;99.90;;;;;;4993996;28;20203;-66
2023/09/07 05:08:54;;;;;;;1.40;1.40;;;21.30;99.90;;;;;;4985647;28;20197;-66
2023/09/07 05:11:22;;;;;;;1.92;1.40;;;21.30;99.90;;;;;;5003401;28;20207;-66
2023/09/07 05:13:49;;;;;;;1.35;1.25;;;21.30;99.90;;;;;;4989389;28;20258;-67
2023/09/07 05:16:16;;;;;;;1.25;1.23;;;21.30;99.90;;;;;;5005229;28;20535;-66
2023/09/07 05:18:43;;;;;;;1.23;1.13;;;21.30;99.90;;;;;;4987459;28;20212;-66
2023/09/07 05:21:14;;;;;;;1.52;1.42;;;21.30;99.90;;;;;;4996716;28;20680;-66
2023/09/07 05:23:43;;;;;;;1.20;1.20;;;21.30;99.90;;;;;;4989713;28;20200;-66
2023/09/07 05:26:13;;;;;;;2.70;1.20;;;21.30;99.90;;;;;;4990834;28;20191;-66
2023/09/07 05:28:42;;;;;;;1.05;1.05;;;21.30;99.90;;;;;;4995588;28;20570;-66
2023/09/07 05:31:09;;;;;;;1.13;1.13;;;21.30;99.90;;;;;;4993730;28;20202;-66
2023/09/07 05:33:37;;;;;;;1.35;1.25;;;21.30;99.90;;;;;;4998023;28;20200;-67
2023/09/07 05:36:04;;;;;;;1.02;1.02;;;21.30;99.90;;;;;;4985915;28;20287;-66
2023/09/07 05:38:31;;;;;;;3.95;1.20;;;21.30;99.90;;;;;;4996669;28;20207;-66
2023/09/07 05:41:00;;;;;;;1.30;1.20;;;21.30;99.90;;;;;;4995863;28;20265;-66
2023/09/07 05:43:27;;;;;;;1.10;1.10;;;21.30;99.90;;;;;;4991341;28;20279;-66
2023/09/07 05:45:54;;;;;;;0.88;0.88;;;21.30;99.90;;;;;;4989856;28;20215;-66
2023/09/07 05:48:21;;;;;;;1.10;1.00;;;21.40;99.90;;;;;;4995540;28;20345;-66
2023/09/07 05:50:49;;;;;;;1.20;1.10;;;21.40;99.90;;;;;;4991245;28;20228;-65
2023/09/07 05:53:17;;;;;;;1.00;1.00;;;21.40;99.90;;;;;;4989279;28;20591;-65
2023/09/07 05:55:46;;;;;;;1.10;1.10;;;21.40;99.90;;;;;;4996986;28;20746;-65
2023/09/07 05:58:15;;;;;;;1.27;1.27;;;21.40;99.90;;;;;;4995519;28;20278;-65
2023/09/07 06:00:44;;;;;;;1.67;1.52;;;21.50;99.90;;;;;;4991531;28;20695;-65
2023/09/07 06:03:12;;;;;;;1.70;1.13;;;21.50;99.90;;;;;;4985406;28;20231;-65
2023/09/07 06:05:40;;;;;;;1.20;1.20;;;21.50;99.90;;;;;;5000539;28;20234;-65
2023/09/07 06:08:09;;;;;;;0.93;0.93;;;21.50;99.90;;;;;;4999782;28;20210;-65
2023/09/07 06:10:37;;;;;;;1.23;1.23;;;21.50;99.90;;;;;;5002000;28;20259;-65
2023/09/07 06:13:05;;;;;;;1.08;1.08;;;21.60;99.90;;;;;;5006056;28;20250;-65
2023/09/07 06:15:34;;;;;;;1.50;1.40;;;21.60;99.90;;;;;;4992631;28;20196;-65
2023/09/07 06:18:02;;;;;;;1.30;1.30;;;21.60;99.90;;;;;;5006738;28;20200;-66
2023/09/07 06:20:29;;;;;;;1.48;1.38;;;21.70;99.90;;;;;;5007797;28;20207;-65
2023/09/07 06:22:59;;;;;;;1.45;1.30;;;21.60;99.90;;;;;;4999082;28;20208;-66
2023/09/07 06:25:27;;;;;;;2.45;2.25;;;21.70;99.90;;;;;;5009172;28;20195;-65
2023/09/07 06:27:54;;;;;;;1.75;1.65;;;21.80;99.90;;;;;;5000528;28;20680;-65
2023/09/07 06:30:21;;;;;;;2.22;1.55;;;21.80;99.90;;;;;;5009092;28;20204;-65
2023/09/07 06:32:51;;;;;;;2.20;1.70;;;21.80;99.90;;;;;;4994201;28;20785;-66
2023/09/07 06:35:19;;;;;;;2.00;1.80;;;21.80;99.90;;;;;;5008571;28;20221;-66
2023/09/07 06:37:46;;;;;;;1.67;1.58;;;21.80;99.90;;;;;;5003856;28;20628;-66
2023/09/07 06:40:17;;;;;;;1.85;1.75;;;21.90;99.90;;;;;;4998504;28;20197;-66
2023/09/07 06:42:46;;;;;;;1.48;1.48;;;21.90;99.90;;;;;;5004098;28;20219;-66
2023/09/07 06:45:16;;;;;;;1.73;1.63;;;21.90;99.90;;;;;;4992496;28;20204;-66
2023/09/07 06:47:43;;;;;;;1.85;1.75;;;22.00;99.90;;;;;;4991957;28;20299;-66
2023/09/07 06:50:13;;;;;;;2.58;1.60;;;21.90;99.90;;;;;;4993396;28;20694;-66
2023/09/07 06:52:40;;;;;;;1.90;1.80;;;22.00;99.90;;;;;;4995156;28;20198;-66
2023/09/07 06:55:09;;;;;;;1.48;1.45;;;22.00;99.90;;;;;;4994694;28;20219;-66
2023/09/07 06:57:36;;;;;;;1.67;1.58;;;22.00;99.90;;;;;;4994169;28;20212;-66
2023/09/07 07:00:06;;;;;;;1.60;1.50;;;22.00;99.90;;;;;;4992199;28;20221;-65
2023/09/07 07:02:34;;;;;;;1.40;1.30;;;22.10;99.90;;;;;;4994351;28;20251;-66
2023/09/07 07:05:02;;;;;;;1.60;1.50;;;22.10;99.90;;;;;;5005017;28;20231;-67
2023/09/07 07:07:31;;;;;;;2.20;2.10;;;22.20;99.90;;;;;;4998687;28;20202;-67
2023/09/07 07:09:59;;;;;;;2.00;1.90;;;22.20;99.90;;;;;;5017108;28;20582;-67
2023/09/07 07:12:26;;;;;;;1.67;1.58;;;22.30;99.90;;;;;;5008428;28;20281;-67
2023/09/07 07:14:53;;;;;;;1.95;1.80;;;22.30;99.90;;;;;;5010992;28;20662;-66
2023/09/07 07:17:21;;;;;;;2.40;2.30;;;22.30;99.90;;;;;;5003622;28;20233;-67
2023/09/07 07:19:48;;;;;;;1.73;1.63;;;22.40;99.90;;;;;;4999730;28;20212;-66
2023/09/07 07:22:15;;;;;;;2.13;2.03;;;22.40;99.90;;;;;;5005605;28;20214;-67
2023/09/07 07:24:44;;;;;;;2.97;2.72;;;22.40;99.90;;;;;;5018531;28;20282;-66
2023/09/07 07:27:11;;;;;;;2.80;2.60;;;22.40;99.90;;;;;;5006893;28;20561;-67
2023/09/07 07:29:39;;;;;;;2.15;1.92;;;22.40;99.90;;;;;;5001575;28;20294;-66
2023/09/07 07:32:07;;;;;;;2.17;2.08;;;22.40;99.90;;;;;;5009692;28;20215;-67
2023/09/07 07:34:34;;;;;;;1.88;1.70;;;22.40;99.90;;;;;;5019295;28;20218;-66
2023/09/07 07:37:02;;;;;;;1.92;1.83;;;22.40;99.90;;;;;;5025664;28;20201;-67
2023/09/07 07:39:29;;;;;;;2.13;2.03;;;22.40;99.90;;;;;;5001871;28;20195;-67
2023/09/07 07:41:58;;;;;;;2.28;2.17;;;22.40;99.90;;;;;;4995067;28;20222;-66
2023/09/07 07:44:25;;;;;;;2.10;2.00;;;22.50;99.90;;;;;;5012636;28;20188;-66
2023/09/07 07:46:53;;;;;;;2.20;2.10;;;22.50;99.90;;;;;;4994398;28;20269;-66
2023/09/07 07:49:20;;;;;;;1.73;1.63;;;22.60;99.90;;;;;;5012558;28;20225;-66
2023/09/07 07:51:47;;;;;;;1.98;1.88;;;22.70;99.90;;;;;;5013136;28;20194;-67
2023/09/07 07:54:15;;;;;;;1.90;1.80;;;22.80;99.90;;;;;;5013057;28;20210;-66
2023/09/07 07:56:42;;;;;;;2.00;1.90;;;22.80;99.90;;;;;;4996053;28;20207;-66
2023/09/07 07:59:11;;;;;;;3.83;2.30;;;22.80;99.90;;;;;;4994334;28;20700;-66
2023/09/07 08:01:38;;;;;;;2.47;2.28;;;22.90;99.90;;;;;;5014025;28;20302;-67
2023/09/07 08:04:07;;;;;;;2.70;2.38;;;22.90;99.90;;;;;;4995598;28;20240;-66
2023/09/07 08:06:35;;;;;;;1.98;1.88;;;22.90;99.90;;;;;;4994142;28;20203;-67
2023/09/07 08:09:03;;;;;;;1.98;1.88;;;23.00;99.90;;;;;;4996166;28;20297;-66
2023/09/07 08:11:31;;;;;;;1.80;1.70;;;23.00;99.90;;;;;;5001288;28;20199;-65
2023/09/07 08:13:58;;;;;;;3.00;1.60;;;23.00;99.90;;;;;;4998695;28;20198;-66
2023/09/07 08:16:27;;;;;;;2.00;1.90;;;23.00;99.90;;;;;;4990082;28;20200;-66
2023/09/07 08:18:54;;;;;;;1.40;1.40;;;23.10;99.90;;;;;;5013951;28;20218;-66
2023/09/07 08:21:21;;;;;;;1.95;1.80;;;23.10;99.90;;;;;;4997904;28;20208;-66
2023/09/07 08:23:48;;;;;;;1.83;1.73;;;23.10;99.90;;;;;;5020529;28;20211;-66
2023/09/07 08:26:17;;;;;;;2.50;2.30;;;23.20;99.90;;;;;;4986236;28;20207;-66
2023/09/07 08:28:47;;;;;;;1.80;1.70;;;23.30;99.90;;;;;;4999324;28;20205;-67
2023/09/07 08:31:20;;;;;;;2.28;2.17;;;23.30;99.90;;;;;;4992272;28;20601;-66
2023/09/07 08:33:51;;;;;;;2.00;1.90;;;23.40;99.90;;;;;;5011037;28;20191;-66
2023/09/07 08:36:18;;;;;;;2.03;1.90;;;23.40;99.90;;;;;;5014685;28;20265;-66
2023/09/07 08:38:45;;;;;;;2.38;2.20;;;23.50;99.90;;;;;;5021860;28;20199;-66
2023/09/07 08:41:13;;;;;;;2.58;2.13;;;23.60;99.90;;;;;;5014204;28;20214;-66
2023/09/07 08:43:46;;;;;;;2.40;2.30;;;23.60;99.90;;;;;;5027460;28;20230;-66
2023/09/07 08:46:15;;;;;;;2.05;1.95;;;23.70;99.90;;;;;;5017282;28;20278;-67
2023/09/07 08:48:44;;;;;;;2.13;1.92;;;23.80;99.90;;;;;;5020328;28;20209;-66
2023/09/07 08:51:14;;;;;;;2.60;2.40;;;23.90;99.90;;;;;;5023303;28;20260;-66
2023/09/07 08:53:45;;;;;;;1.90;1.80;;;23.90;99.90;;;;;;5023747;28;20601;-66
2023/09/07 08:56:13;;;;;;;2.10;2.00;;;24.00;99.90;;;;;;5012680;28;20649;-66
2023/09/07 08:58:41;;;;;;;2.95;2.72;;;24.00;99.90;;;;;;5030237;28;20226;-65
2023/09/07 09:01:09;;;;;;;2.90;2.35;;;24.00;99.90;;;;;;5009357;28;20226;-65
2023/09/07 09:03:36;;;;;;;2.72;2.05;;;24.00;99.90;;;;;;5029661;28;20214;-66
2023/09/07 09:06:05;;;;;;;2.28;2.10;;;24.10;99.90;;;;;;5018829;28;20203;-66
2023/09/07 09:08:44;;;;;;;2.22;2.03;;;24.10;99.90;;;;;;5012673;28;20315;-67
2023/09/07 09:11:11;;;;;;;2.70;2.50;;;24.20;99.90;;;;;;4983113;28;20602;-67
2023/09/07 09:13:40;;;;;;;2.88;2.67;;;24.20;99.90;;;;;;5027471;28;20582;-67
2023/09/07 09:16:07;;;;;;;2.30;2.10;;;24.30;99.90;;;;;;5018909;28;20313;-67
2023/09/07 09:18:34;;;;;;;2.22;2.03;;;24.40;99.90;;;;;;5014195;28;20198;-66
2023/09/07 09:21:02;;;;;;;2.30;2.10;;;24.40;99.90;;;;;;5025430;28;20237;-67
2023/09/07 09:23:32;;;;;;;2.20;2.10;;;24.50;99.90;;;;;;5010414;28;20234;-66
2023/09/07 09:26:03;;;;;;;2.17;2.08;;;24.50;99.90;;;;;;5007504;28;20280;-67
2023/09/07 09:28:32;;;;;;;2.13;1.92;;;24.60;99.90;;;;;;5030271;28;20338;-67
2023/09/07 09:31:00;;;;;;;2.20;2.10;;;24.60;99.90;;;;;;5010601;28;20232;-66
2023/09/07 09:33:27;;;;;;;2.13;2.00;;;24.70;99.90;;;;;;5002188;28;20198;-67
2023/09/07 09:35:56;;;;;;;2.45;2.25;;;24.80;99.90;;;;;;5011595;28;20212;-67
2023/09/07 09:38:23;;;;;;;2.55;2.35;;;24.90;99.90;;;;;;5030003;28;20585;-66
2023/09/07 09:40:51;;;;;;;2.92;2.63;;;25.10;99.90;;;;;;5016586;28;20234;-66
2023/09/07 09:43:21;;;;;;;3.17;2.40;;;25.20;99.90;;;;;;5020819;28;20294;-66
2023/09/07 09:45:50;;;;;;;2.78;2.42;;;25.20;99.90;;;;;;5022776;28;20199;-66
2023/09/07 09:48:19;;;;;;;3.33;2.00;;;25.20;99.90;;;;;;5017038;28;20535;-65
2023/09/07 09:50:48;;;;;;;2.70;2.50;;;25.30;99.90;;;;;;5018903;28;20207;-65
2023/09/07 09:53:18;;;;;;;2.20;2.10;;;25.40;99.90;;;;;;5027792;28;20220;-66
2023/09/07 09:55:46;;;;;;;2.70;2.33;;;25.40;99.90;;;;;;5028230;28;20191;-66
2023/09/07 09:58:14;;;;;;;2.60;2.40;;;25.30;99.90;;;;;;5033170;28;20198;-66
2023/09/07 10:00:44;;;;;;;2.17;1.90;;;25.40;99.90;;;;;;5015830;28;20285;-65
2023/09/07 10:03:14;;;;;;;2.08;1.90;;;25.40;99.90;;;;;;5032449;28;20370;-66
2023/09/07 10:05:42;;;;;;;2.40;2.30;;;25.50;99.90;;;;;;5029431;28;20237;-66
2023/09/07 10:08:12;;;;;;;2.60;2.40;;;25.40;99.90;;;;;;5034065;28;20195;-66
2023/09/07 10:10:40;;;;;;;2.40;2.28;;;25.50;99.90;;;;;;5032536;28;20199;-66
2023/09/07 10:13:07;;;;;;;2.20;2.00;;;25.60;99.90;;;;;;5025607;28;20197;-66
2023/09/07 10:15:35;;;;;;;1.85;1.75;;;25.70;99.90;;;;;;5013288;28;20211;-66
2023/09/07 10:18:10;;;;;;;3.47;2.10;;;25.70;99.90;;;;;;5025715;28;20297;-66
2023/09/07 10:20:55;;;;;;;2.63;2.42;;;25.80;99.90;;;;;;5029538;28;20547;-66
2023/09/07 10:23:23;;;;;;;2.30;2.20;;;25.90;99.90;;;;;;5028633;28;20202;-66
2023/09/07 10:25:52;;;;;;;2.72;2.53;;;25.90;99.90;;;;;;5027702;28;20235;-66
2023/09/07 10:28:23;;;;;;;2.10;2.00;;;25.90;99.90;;;;;;5025180;28;20282;-66
2023/09/07 10:31:03;;;;;;;1.77;1.67;;;25.90;99.90;;;;;;5028182;28;20191;-65
2023/09/07 10:33:32;;;;;;;1.70;1.63;;;25.90;99.90;;;;;;5004001;28;20253;-66
2023/09/07 10:35:59;;;;;;;2.25;2.15;;;26.10;99.90;;;;;;5027277;28;20555;-66
2023/09/07 10:38:27;;;;;;;1.95;1.85;;;26.30;99.90;;;;;;5033264;28;20190;-67
2023/09/07 10:40:58;;;;;;;1.95;1.80;;;26.40;99.90;;;;;;5018668;28;20199;-66
2023/09/07 10:43:26;;;;;;;2.20;2.10;;;26.50;99.90;;;;;;5012185;28;20215;-66
2023/09/07 10:45:54;;;;;;;1.80;1.70;;;26.50;99.90;;;;;;5005910;28;20323;-66
2023/09/07 10:48:21;;;;;;;3.25;1.80;;;26.60;99.90;;;;;;5009791;28;20215;-66
2023/09/07 10:50:51;;;;;;;1.75;1.65;;;26.60;99.90;;;;;;5025526;28;20202;-67
2023/09/07 10:53:27;;;;;;;2.40;2.20;;;26.70;99.90;;;;;;5026753;28;20245;-66
2023/09/07 10:55:55;;;;;;;1.90;1.80;;;26.80;99.90;;;;;;5032894;28;20194;-66
2023/09/07 10:58:30;;;;;;;3.40;1.77;;;26.90;99.90;;;;;;5033538;28;20543;-66
2023/09/07 11:00:58;;;;;;;1.98;1.80;;;26.90;99.90;;;;;;5007721;28;20194;-66
2023/09/07 11:03:26;;;;;;;2.55;2.10;;;27.00;99.90;;;;;;5023536;28;20646;-66
2023/09/07 11:05:59;;;;;;;1.92;1.90;;;27.00;99.90;;;;;;5027741;28;20234;-66
2023/09/07 11:08:26;;;;;;;1.73;1.63;;;27.00;99.90;;;;;;5025929;28;20194;-66
2023/09/07 11:10:53;;;;;;;1.98;1.88;;;27.00;99.90;;;;;;4993812;28;20230;-67
2023/09/07 11:13:22;;;;;;;1.85;1.73;;;26.90;99.90;;;;;;5025363;28;20205;-66
2023/09/07 11:15:50;;;;;;;1.90;1.80;;;26.90;99.90;;;;;;5028623;28;20276;-67
2023/09/07 11:18:21;;;;;;;1.67;1.63;;;26.90;99.90;;;;;;5025164;28;20199;-66
2023/09/07 11:20:49;;;;;;;2.10;1.90;;;26.80;99.90;;;;;;5032062;28;20272;-66
2023/09/07 11:23:18;;;;;;;2.00;1.80;;;26.70;99.90;;;;;;5025975;28;20210;-67
2023/09/07 11:25:47;;;;;;;1.88;1.77;;;26.70;99.90;;;;;;5018616;28;20554;-66
2023/09/07 11:28:16;;;;;;;1.73;1.63;;;26.70;99.90;;;;;;5026981;28;20206;-67
2023/09/07 11:30:51;;;;;;;1.80;1.70;;;26.80;99.90;;;;;;5013375;28;20209;-67
2023/09/07 11:33:18;;;;;;;2.00;1.80;;;26.90;99.90;;;;;;5016114;28;20298;-66
2023/09/07 11:35:45;;;;;;;2.25;2.00;;;26.90;99.90;;;;;;5030933;28;20642;-66
2023/09/07 11:38:15;;;;;;;1.90;1.80;;;26.90;99.90;;;;;;5028461;28;20195;-66
2023/09/07 11:40:44;;;;;;;2.20;1.95;;;26.90;99.90;;;;;;5014384;28;20226;-67
2023/09/07 11:43:12;;;;;;;1.92;1.83;;;27.00;99.90;;;;;;4992762;28;20231;-67
2023/09/07 11:45:39;;;;;;;1.58;1.52;;;27.00;99.90;;;;;;5012559;28;20243;-66
2023/09/07 11:48:08;;;;;;;1.60;1.50;;;27.10;99.90;;;;;;5014676;28;20205;-67
2023/09/07 11:50:37;;;;;;;1.38;1.38;;;27.10;99.90;;;;;;5031770;28;20735;-67
2023/09/07 11:53:05;;;;;;;1.88;1.77;;;27.00;99.90;;;;;;5018665;28;20195;-66
2023/09/07 11:55:32;;;;;;;1.73;1.60;;;27.00;99.90;;;;;;5032151;28;20670;-67
2023/09/07 11:58:01;;;;;;;4.13;1.63;;;27.00;99.90;;;;;;5021119;28;20205;-66
2023/09/07 12:00:29;;;;;;;1.40;1.40;;;27.10;99.90;;;;;;5030128;28;20210;-67
2023/09/07 12:02:57;;;;;;;1.42;1.38;;;27.20;99.90;;;;;;5019509;28;20210;-67
2023/09/07 12:05:25;;;;;;;1.42;1.40;;;27.20;99.90;;;;;;5030536;28;20292;-66
2023/09/07 12:07:52;;;;;;;1.70;1.60;;;27.20;99.90;;;;;;5025791;28;20198;-66
2023/09/07 12:10:19;;;;;;;1.70;1.60;;;27.20;99.90;;;;;;5030834;28;20203;-67
2023/09/07 12:12:46;;;;;;;1.35;1.35;;;27.20;99.90;;;;;;5021000;28;20202;-66
2023/09/07 12:15:15;;;;;;;1.67;1.58;;;27.30;99.90;;;;;;5027259;28;20199;-67
2023/09/07 12:17:42;;;;;;;1.50;1.50;;;27.20;99.90;;;;;;5021901;28;20252;-66
2023/09/07 12:20:12;;;;;;;2.25;1.85;;;27.20;99.90;;;;;;5029679;28;20689;-66
2023/09/07 12:22:40;;;;;;;1.48;1.45;;;27.20;99.90;;;;;;5030667;28;20566;-66
2023/09/07 12:25:10;;;;;;;1.30;1.20;;;27.10;99.90;;;;;;5030895;28;20368;-67
2023/09/07 12:27:37;;;;;;;1.33;1.27;;;27.10;99.90;;;;;;5006238;28;20199;-67
2023/09/07 12:30:11;;;;;;;1.63;1.52;;;27.10;99.90;;;;;;5027308;28;20716;-66
2023/09/07 12:32:40;;;;;;;1.60;1.50;;;27.20;99.90;;;;;;5022668;28;20532;-68
2023/09/07 12:35:08;;;;;;;1.73;1.63;;;27.20;99.90;;;;;;4995392;28;20568;-67
2023/09/07 12:37:36;;;;;;;1.88;1.20;;;27.20;99.90;;;;;;5012050;28;20196;-66
2023/09/07 12:40:11;;;;;;;1.98;1.80;;;27.20;99.90;;;;;;5031287;28;20210;-66
2023/09/07 12:42:40;;;;;;;1.50;1.40;;;27.20;99.90;;;;;;5020425;28;20194;-67
2023/09/07 12:45:09;;;;;;;1.63;1.50;;;27.20;99.90;;;;;;5017149;28;20227;-66
2023/09/07 12:47:36;;;;;;;1.63;1.52;;;27.20;99.90;;;;;;5010090;28;20381;-66
2023/09/07 12:50:06;;;;;;;1.60;1.50;;;27.20;99.90;;;;;;5013352;28;20199;-67
2023/09/07 12:52:35;;;;;;;1.30;1.30;;;27.40;99.90;;;;;;5015531;28;20198;-66